Time;durP1;ratioP1;P1;durP2;ratioP2;P2;SDS_P1;SDS_P2;PMS_P1;PMS_P2;Temp;Humidity;BMP_temperature;BMP_pressure;BME280_temperature;BME280_humidity;BME280_pressure;Samples;Min_cycle;Max_cycle;Signal;HPM_P1;HPM_P2
2022/06/26 00:02:25;;;;;;;27.35;24.75;;;21.70;99.90;;;;;;5018313;28;20674;-71
2022/06/26 00:04:50;;;;;;;29.23;26.70;;;21.70;99.90;;;;;;5023044;28;20211;-69
2022/06/26 00:07:16;;;;;;;30.95;27.92;;;21.80;99.90;;;;;;5026836;28;20226;-69
2022/06/26 00:09:43;;;;;;;29.02;26.42;;;21.80;99.90;;;;;;5025426;28;20278;-68
2022/06/26 00:12:08;;;;;;;30.08;27.38;;;21.70;99.90;;;;;;5021000;28;20192;-68
2022/06/26 00:14:34;;;;;;;28.45;25.95;;;21.70;99.90;;;;;;5022750;28;20213;-68
2022/06/26 00:16:59;;;;;;;29.38;26.23;;;21.70;99.90;;;;;;5016759;28;20559;-69
2022/06/26 00:19:25;;;;;;;30.45;27.73;;;21.80;99.90;;;;;;5018834;28;20570;-68
2022/06/26 00:21:51;;;;;;;29.60;26.83;;;21.70;99.90;;;;;;5010884;28;20192;-68
2022/06/26 00:24:17;;;;;;;29.50;26.90;;;21.70;99.90;;;;;;5024159;28;20194;-68
2022/06/26 00:26:42;;;;;;;28.65;25.95;;;21.60;99.90;;;;;;5019458;28;20184;-68
2022/06/26 00:29:08;;;;;;;27.60;25.08;;;21.60;99.90;;;;;;5021169;28;20188;-69
2022/06/26 00:31:34;;;;;;;25.02;22.75;;;21.60;99.90;;;;;;5021250;28;20301;-68
2022/06/26 00:33:59;;;;;;;24.52;22.08;;;21.60;99.90;;;;;;5019556;28;20647;-68
2022/06/26 00:36:25;;;;;;;24.00;21.88;;;21.60;99.90;;;;;;5014608;28;20196;-68
2022/06/26 00:38:52;;;;;;;23.67;21.52;;;21.60;99.90;;;;;;5025041;28;20282;-68
2022/06/26 00:41:17;;;;;;;22.85;20.75;;;21.60;99.90;;;;;;5011483;28;20199;-68
2022/06/26 00:43:43;;;;;;;31.20;28.13;;;21.60;99.90;;;;;;5026272;28;20615;-68
2022/06/26 00:46:08;;;;;;;25.40;23.10;;;21.50;99.90;;;;;;5014762;28;20208;-69
2022/06/26 00:48:34;;;;;;;24.10;22.00;;;21.60;99.90;;;;;;5025682;28;20255;-69
2022/06/26 00:51:00;;;;;;;23.75;21.42;;;21.50;99.90;;;;;;5016343;28;20230;-70
2022/06/26 00:53:25;;;;;;;22.45;20.45;;;21.50;99.90;;;;;;5026523;28;20282;-69
2022/06/26 00:55:51;;;;;;;26.25;22.30;;;21.50;99.90;;;;;;5012030;28;20246;-69
2022/06/26 00:58:17;;;;;;;24.35;22.25;;;21.50;99.90;;;;;;5026687;28;20653;-69
2022/06/26 01:00:42;;;;;;;24.15;21.85;;;21.50;99.90;;;;;;5009637;28;21000;-68
2022/06/26 01:03:09;;;;;;;23.53;21.27;;;21.50;99.90;;;;;;5025118;28;20195;-69
2022/06/26 01:05:34;;;;;;;21.75;19.88;;;21.50;99.90;;;;;;5016166;28;20257;-69
2022/06/26 01:08:00;;;;;;;23.35;19.90;;;21.50;99.90;;;;;;5024835;28;20207;-69
2022/06/26 01:10:26;;;;;;;21.65;19.80;;;21.50;99.90;;;;;;5023631;28;20278;-69
2022/06/26 01:12:52;;;;;;;22.10;20.13;;;21.40;99.90;;;;;;5025503;28;20199;-69
2022/06/26 01:15:18;;;;;;;21.73;19.83;;;21.40;99.90;;;;;;5012869;28;20200;-69
2022/06/26 01:17:44;;;;;;;22.27;20.27;;;21.40;99.90;;;;;;5025533;28;20945;-69
2022/06/26 01:20:10;;;;;;;25.30;22.83;;;21.40;99.90;;;;;;5013844;28;20215;-72
2022/06/26 01:22:35;;;;;;;26.00;22.95;;;21.30;99.90;;;;;;5022471;28;20200;-70
2022/06/26 01:25:01;;;;;;;22.47;20.43;;;21.40;99.90;;;;;;5023448;28;20211;-68
2022/06/26 01:27:26;;;;;;;21.27;19.03;;;21.30;99.90;;;;;;5025900;28;20316;-68
2022/06/26 01:29:52;;;;;;;22.27;20.37;;;21.30;99.90;;;;;;5024411;28;20222;-69
2022/06/26 01:32:17;;;;;;;22.47;20.60;;;21.20;99.90;;;;;;5018547;28;20283;-68
2022/06/26 01:34:43;;;;;;;22.05;20.27;;;21.20;99.90;;;;;;5016039;28;20204;-67
2022/06/26 01:37:08;;;;;;;22.57;20.50;;;21.20;99.90;;;;;;5016581;28;20302;-68
2022/06/26 01:39:34;;;;;;;23.93;21.93;;;21.10;99.90;;;;;;5019124;28;20325;-68
2022/06/26 01:41:59;;;;;;;22.03;20.00;;;21.10;99.90;;;;;;5006139;28;20266;-68
2022/06/26 01:44:25;;;;;;;22.30;20.40;;;21.10;99.90;;;;;;5018211;28;20592;-68
2022/06/26 01:46:50;;;;;;;22.73;20.70;;;21.10;99.90;;;;;;5017505;28;20211;-65
2022/06/26 01:49:16;;;;;;;21.97;19.93;;;21.00;99.90;;;;;;5021279;28;20215;-68
2022/06/26 01:51:42;;;;;;;23.77;21.77;;;21.00;99.90;;;;;;5017115;28;20502;-67
2022/06/26 01:54:08;;;;;;;22.70;20.77;;;21.00;99.90;;;;;;5020942;28;20196;-68
2022/06/26 01:56:33;;;;;;;28.42;23.90;;;20.90;99.90;;;;;;5016042;28;20184;-68
2022/06/26 02:03:11;;;;;;;24.60;21.98;;;20.90;99.90;;;;;;5023948;28;20249;-68
2022/06/26 02:05:37;;;;;;;24.90;22.50;;;21.00;99.90;;;;;;5011209;28;20204;-68
2022/06/26 02:08:04;;;;;;;26.57;24.07;;;20.90;99.90;;;;;;5023811;28;20272;-68
2022/06/26 02:16:00;;;;;;;24.50;22.33;;;20.90;99.90;;;;;;5013592;28;20235;-68
2022/06/26 02:18:26;;;;;;;23.73;21.57;;;20.90;99.90;;;;;;5024736;28;20191;-69
2022/06/26 02:20:53;;;;;;;25.27;22.50;;;20.80;99.90;;;;;;5022767;28;20326;-68
2022/06/26 02:23:19;;;;;;;21.97;20.00;;;20.80;99.90;;;;;;5025304;28;20203;-69
2022/06/26 02:25:45;;;;;;;24.47;22.33;;;20.80;99.90;;;;;;5015764;28;20431;-68
2022/06/26 02:28:11;;;;;;;23.47;21.47;;;20.80;99.90;;;;;;5024980;28;20285;-69
2022/06/26 02:30:37;;;;;;;25.53;23.23;;;20.80;99.90;;;;;;5011598;28;20720;-69
2022/06/26 02:33:03;;;;;;;24.67;22.47;;;20.80;99.90;;;;;;5012965;28;20211;-69
2022/06/26 02:35:29;;;;;;;24.40;22.30;;;20.80;99.90;;;;;;5023143;28;20203;-69
2022/06/26 02:37:56;;;;;;;24.43;22.13;;;20.70;99.90;;;;;;5019703;28;20235;-69
2022/06/26 02:40:24;;;;;;;22.73;20.53;;;20.70;99.90;;;;;;5022419;28;20207;-69
2022/06/26 02:42:49;;;;;;;24.33;21.93;;;20.70;99.90;;;;;;5024765;28;20262;-69
2022/06/26 02:45:15;;;;;;;24.27;22.27;;;20.70;99.90;;;;;;5023269;28;20725;-68
2022/06/26 02:47:41;;;;;;;24.87;22.33;;;20.70;99.90;;;;;;5021350;28;20303;-69
2022/06/26 02:50:08;;;;;;;24.33;22.23;;;20.70;99.90;;;;;;5026128;28;20199;-68
2022/06/26 02:52:33;;;;;;;25.60;23.33;;;20.70;99.90;;;;;;5019717;28;20188;-69
2022/06/26 02:55:00;;;;;;;25.20;23.00;;;20.60;99.90;;;;;;5026144;28;20253;-69
2022/06/26 02:57:26;;;;;;;25.57;23.27;;;20.60;99.90;;;;;;5009398;28;20263;-69
2022/06/26 02:59:52;;;;;;;25.33;22.83;;;20.60;99.90;;;;;;5021402;28;20311;-69
2022/06/26 03:02:17;;;;;;;25.10;22.53;;;20.60;99.90;;;;;;5024879;28;20897;-69
2022/06/26 03:04:43;;;;;;;24.90;22.83;;;20.60;99.90;;;;;;5022973;28;20196;-68
2022/06/26 03:07:08;;;;;;;24.90;22.47;;;20.60;99.90;;;;;;5010787;28;20566;-69
2022/06/26 03:09:34;;;;;;;25.67;23.23;;;20.60;99.90;;;;;;5027001;28;20203;-68
2022/06/26 03:11:59;;;;;;;24.23;22.23;;;20.60;99.90;;;;;;5020207;28;20605;-69
2022/06/26 03:14:25;;;;;;;24.93;22.57;;;20.60;99.90;;;;;;5025897;28;20210;-68
2022/06/26 03:16:50;;;;;;;25.67;23.37;;;20.60;99.90;;;;;;5024437;28;20708;-69
2022/06/26 03:19:16;;;;;;;26.37;24.07;;;20.60;99.90;;;;;;5024493;28;20238;-70
2022/06/26 03:21:41;;;;;;;26.30;23.70;;;20.60;99.90;;;;;;5007465;28;20643;-69
2022/06/26 03:24:06;;;;;;;26.57;24.17;;;20.60;99.90;;;;;;5027730;28;20226;-69
2022/06/26 03:26:34;;;;;;;26.33;24.13;;;20.60;99.90;;;;;;5010181;28;20199;-69
2022/06/26 03:29:01;;;;;;;25.73;23.50;;;20.60;99.90;;;;;;5028225;28;20447;-69
2022/06/26 03:31:27;;;;;;;26.67;24.27;;;20.60;99.90;;;;;;5015661;28;20650;-70
2022/06/26 03:33:54;;;;;;;30.43;27.43;;;20.60;99.90;;;;;;5027869;28;20208;-70
2022/06/26 03:36:20;;;;;;;29.40;26.87;;;20.70;99.90;;;;;;5017677;28;20227;-70
2022/06/26 03:38:46;;;;;;;29.50;27.07;;;20.70;99.90;;;;;;5027962;28;20195;-69
2022/06/26 03:41:12;;;;;;;28.63;26.10;;;20.70;99.90;;;;;;5013912;28;20208;-70
2022/06/26 03:43:38;;;;;;;29.63;26.97;;;20.80;99.90;;;;;;5028011;28;20290;-69
2022/06/26 03:46:03;;;;;;;28.57;25.73;;;20.80;99.90;;;;;;5012699;28;20302;-70
2022/06/26 03:48:30;;;;;;;28.13;25.73;;;20.90;99.90;;;;;;5018381;28;20250;-69
2022/06/26 03:50:55;;;;;;;27.60;25.03;;;21.00;99.90;;;;;;5013720;28;20511;-69
2022/06/26 03:53:21;;;;;;;25.67;23.50;;;21.00;99.90;;;;;;5027905;28;20785;-69
2022/06/26 03:55:46;;;;;;;27.40;25.00;;;21.10;99.90;;;;;;5021971;28;20713;-69
2022/06/26 03:58:12;;;;;;;26.23;24.03;;;21.10;99.90;;;;;;5026959;28;20246;-69
2022/06/26 04:00:37;;;;;;;24.77;22.57;;;21.20;99.90;;;;;;5024125;28;20242;-70
2022/06/26 04:03:05;;;;;;;26.90;24.35;;;21.30;99.90;;;;;;5027441;28;20231;-70
2022/06/26 04:05:31;;;;;;;33.53;30.58;;;21.30;99.90;;;;;;5025477;28;20253;-70
2022/06/26 04:07:57;;;;;;;36.97;33.67;;;21.40;99.90;;;;;;5027121;28;20601;-70
2022/06/26 04:10:23;;;;;;;37.97;34.60;;;21.50;99.90;;;;;;5024853;28;20211;-70
2022/06/26 04:12:48;;;;;;;39.72;36.22;;;21.50;99.90;;;;;;5012655;28;20184;-70
2022/06/26 04:15:14;;;;;;;38.70;35.20;;;21.60;99.90;;;;;;5018832;28;20203;-66
2022/06/26 04:17:39;;;;;;;44.53;40.63;;;21.70;99.90;;;;;;5019879;28;20322;-69
2022/06/26 04:20:06;;;;;;;47.17;42.85;;;21.70;99.90;;;;;;5020324;28;20274;-69
2022/06/26 04:22:32;;;;;;;45.53;41.28;;;21.70;99.90;;;;;;5016871;28;20203;-68
2022/06/26 04:24:57;;;;;;;43.10;39.17;;;21.80;99.90;;;;;;5011463;28;20270;-68
2022/06/26 04:27:23;;;;;;;35.97;32.67;;;21.90;99.90;;;;;;5009125;28;20299;-71
2022/06/26 04:29:48;;;;;;;33.88;30.63;;;21.90;99.90;;;;;;5024327;28;20195;-71
2022/06/26 04:32:14;;;;;;;28.35;24.75;;;22.00;99.90;;;;;;5012077;28;20672;-70
2022/06/26 04:34:39;;;;;;;28.60;26.20;;;22.00;99.90;;;;;;5022744;28;20187;-70
2022/06/26 04:37:05;;;;;;;25.80;23.52;;;22.10;99.90;;;;;;5014077;28;20202;-70
2022/06/26 04:39:30;;;;;;;22.88;20.80;;;22.10;99.90;;;;;;5026771;28;20294;-69
2022/06/26 04:41:56;;;;;;;21.35;19.45;;;22.20;99.90;;;;;;5016637;28;20299;-70
2022/06/26 04:44:22;;;;;;;20.23;18.23;;;22.20;99.90;;;;;;5025996;28;20192;-69
2022/06/26 04:46:48;;;;;;;19.75;17.80;;;22.30;99.90;;;;;;5012973;28;20271;-72
2022/06/26 04:49:13;;;;;;;18.08;16.58;;;22.40;99.90;;;;;;5025882;28;20243;-74
2022/06/26 04:51:39;;;;;;;17.70;16.10;;;22.40;99.90;;;;;;5014441;28;20231;-71
2022/06/26 04:54:07;;;;;;;18.42;16.73;;;22.50;99.90;;;;;;5026323;28;20204;-71
2022/06/26 04:56:33;;;;;;;17.92;16.50;;;22.50;99.90;;;;;;5019421;28;20219;-69
2022/06/26 04:58:59;;;;;;;18.65;16.95;;;22.60;99.90;;;;;;5026074;28;20201;-70
2022/06/26 05:01:26;;;;;;;17.75;16.25;;;22.60;99.90;;;;;;5010723;28;20266;-70
2022/06/26 05:03:52;;;;;;;16.67;15.02;;;22.60;99.90;;;;;;5025648;28;20667;-69
2022/06/26 05:06:17;;;;;;;17.42;15.88;;;22.70;99.90;;;;;;5011325;28;20216;-69
2022/06/26 05:08:43;;;;;;;17.23;15.65;;;22.80;99.90;;;;;;5025441;28;20741;-68
2022/06/26 05:11:09;;;;;;;17.42;15.82;;;22.80;99.90;;;;;;5014628;28;20250;-70
2022/06/26 05:13:34;;;;;;;16.10;14.90;;;22.80;99.90;;;;;;5025926;28;20356;-71
2022/06/26 05:16:00;;;;;;;17.48;15.88;;;22.90;99.90;;;;;;5018791;28;20204;-69
2022/06/26 05:18:26;;;;;;;18.17;16.70;;;22.90;99.90;;;;;;5026494;28;20185;-69
2022/06/26 05:20:51;;;;;;;17.65;16.05;;;23.00;99.90;;;;;;5014823;28;20683;-69
2022/06/26 05:23:17;;;;;;;17.52;16.15;;;23.00;99.90;;;;;;5026442;28;20209;-69
2022/06/26 05:25:43;;;;;;;17.83;16.33;;;23.00;99.90;;;;;;5020288;28;20717;-69
2022/06/26 05:28:08;;;;;;;18.38;16.77;;;23.00;99.90;;;;;;5024100;28;20219;-67
2022/06/26 05:30:35;;;;;;;16.95;15.38;;;23.10;99.90;;;;;;5022383;28;20202;-66
2022/06/26 05:33:01;;;;;;;16.63;15.38;;;23.10;99.90;;;;;;5011266;28;20635;-67
2022/06/26 05:35:27;;;;;;;18.25;16.65;;;23.10;99.90;;;;;;5018699;28;20216;-67
2022/06/26 05:37:53;;;;;;;18.98;17.38;;;23.10;99.90;;;;;;5006886;28;20180;-68
2022/06/26 05:40:18;;;;;;;16.85;15.45;;;23.10;99.90;;;;;;5024359;28;20207;-68
2022/06/26 05:42:44;;;;;;;17.33;16.00;;;23.10;99.90;;;;;;5017962;28;20230;-69
2022/06/26 05:45:10;;;;;;;17.98;16.65;;;23.10;99.90;;;;;;5024529;28;20218;-68
2022/06/26 05:47:36;;;;;;;18.58;17.13;;;23.10;99.90;;;;;;5017730;28;20570;-69
2022/06/26 05:50:02;;;;;;;19.10;17.38;;;23.10;99.90;;;;;;5020410;28;20207;-71
2022/06/26 05:52:27;;;;;;;20.50;18.58;;;23.20;99.90;;;;;;5017630;28;20185;-71
2022/06/26 05:54:53;;;;;;;16.67;15.45;;;23.20;99.90;;;;;;5022910;28;20224;-68
2022/06/26 05:57:19;;;;;;;18.88;17.17;;;23.30;99.90;;;;;;5006824;28;20576;-69
2022/06/26 05:59:46;;;;;;;18.02;16.63;;;23.40;99.90;;;;;;5009807;28;20267;-70
2022/06/26 06:02:12;;;;;;;16.42;15.10;;;23.60;99.90;;;;;;5005134;28;20305;-72
2022/06/26 06:04:37;;;;;;;15.73;14.43;;;23.70;99.90;;;;;;5021854;28;20678;-71
2022/06/26 06:07:04;;;;;;;14.48;13.13;;;23.80;99.90;;;;;;5015336;28;20218;-70
2022/06/26 06:09:29;;;;;;;14.27;13.07;;;24.00;99.90;;;;;;5025104;28;20553;-70
2022/06/26 06:11:55;;;;;;;11.88;10.88;;;24.10;99.90;;;;;;5007153;28;20203;-70
2022/06/26 06:14:20;;;;;;;12.50;11.32;;;24.20;99.90;;;;;;5025284;28;20197;-70
2022/06/26 06:16:46;;;;;;;12.63;11.50;;;24.30;99.90;;;;;;5023065;28;20201;-69
2022/06/26 06:19:11;;;;;;;11.90;10.90;;;24.30;99.90;;;;;;5017122;28;20192;-70
2022/06/26 06:21:37;;;;;;;9.68;8.80;;;24.30;99.90;;;;;;5011027;28;20205;-70
2022/06/26 06:24:02;;;;;;;9.48;8.52;;;24.30;99.90;;;;;;5025127;28;20187;-69
2022/06/26 06:26:28;;;;;;;9.38;8.68;;;24.30;99.90;;;;;;5015581;28;20201;-70
2022/06/26 06:28:54;;;;;;;9.30;8.60;;;24.30;99.90;;;;;;5025055;28;20719;-69
2022/06/26 06:31:19;;;;;;;8.93;8.23;;;24.40;99.90;;;;;;5012688;28;20573;-70
2022/06/26 06:33:45;;;;;;;9.15;8.35;;;24.30;99.90;;;;;;5024445;28;20576;-69
2022/06/26 06:36:11;;;;;;;8.75;8.15;;;24.30;99.90;;;;;;5013548;28;20598;-70
2022/06/26 06:38:36;;;;;;;8.57;7.78;;;24.30;99.90;;;;;;5024131;28;20202;-70
2022/06/26 06:41:02;;;;;;;9.43;8.65;;;24.30;99.90;;;;;;5014764;28;20753;-70
2022/06/26 06:43:27;;;;;;;8.82;8.23;;;24.30;99.90;;;;;;5024480;28;20615;-69
2022/06/26 06:45:53;;;;;;;9.05;8.35;;;24.40;99.90;;;;;;5016058;28;20564;-68
2022/06/26 06:48:20;;;;;;;7.93;7.32;;;24.60;99.90;;;;;;5016628;28;20249;-69
2022/06/26 06:50:45;;;;;;;8.57;7.88;;;24.70;99.90;;;;;;5022792;28;20204;-69
2022/06/26 06:53:11;;;;;;;7.97;7.43;;;24.70;99.90;;;;;;5025007;28;20185;-70
2022/06/26 06:55:36;;;;;;;7.28;6.78;;;24.80;99.90;;;;;;5020990;28;20242;-70
2022/06/26 06:58:02;;;;;;;7.50;6.90;;;24.90;99.90;;;;;;5006378;28;20180;-69
2022/06/26 07:00:27;;;;;;;7.30;6.60;;;25.00;99.90;;;;;;5022893;28;20215;-69
2022/06/26 07:02:53;;;;;;;7.03;6.35;;;25.10;99.90;;;;;;5017470;28;20188;-70
2022/06/26 07:05:19;;;;;;;7.25;6.60;;;25.20;99.90;;;;;;5021901;28;20737;-69
2022/06/26 07:07:45;;;;;;;7.88;7.25;;;25.30;99.90;;;;;;5014378;28;20619;-71
2022/06/26 07:10:10;;;;;;;6.28;5.88;;;25.40;99.90;;;;;;5016085;28;20278;-70
2022/06/26 07:12:37;;;;;;;6.60;6.10;;;25.50;99.90;;;;;;5024899;28;20190;-70
2022/06/26 07:15:03;;;;;;;6.97;6.47;;;25.60;99.90;;;;;;5024885;28;20229;-70
2022/06/26 07:17:29;;;;;;;7.00;6.50;;;25.70;99.90;;;;;;5012130;28;20220;-70
2022/06/26 07:19:54;;;;;;;7.43;6.88;;;25.70;99.90;;;;;;5024423;28;20194;-71
2022/06/26 07:22:20;;;;;;;7.05;6.55;;;25.70;99.90;;;;;;5022059;28;20278;-70
2022/06/26 07:24:46;;;;;;;6.90;6.40;;;25.70;99.90;;;;;;5024087;28;20201;-70
2022/06/26 07:27:12;;;;;;;8.45;7.80;;;25.70;99.90;;;;;;5006346;28;20222;-71
2022/06/26 07:29:38;;;;;;;7.53;6.93;;;25.80;99.90;;;;;;5019950;28;20188;-70
2022/06/26 07:32:04;;;;;;;8.05;7.40;;;25.80;99.90;;;;;;5012750;28;20206;-71
2022/06/26 07:34:30;;;;;;;7.45;6.85;;;25.90;99.90;;;;;;5027757;28;20184;-71
2022/06/26 07:36:56;;;;;;;7.47;6.97;;;25.90;99.90;;;;;;5012312;28;20274;-70
2022/06/26 07:39:21;;;;;;;7.88;7.35;;;26.00;99.90;;;;;;5027884;28;20198;-71
2022/06/26 07:41:48;;;;;;;7.63;7.13;;;26.10;99.90;;;;;;5013725;28;20721;-71
2022/06/26 07:44:14;;;;;;;9.00;8.30;;;26.30;99.90;;;;;;5027413;28;20223;-69
2022/06/26 07:46:40;;;;;;;8.02;7.32;;;26.30;99.90;;;;;;5018144;28;20298;-70
2022/06/26 07:49:07;;;;;;;7.65;7.03;;;26.40;99.90;;;;;;5027839;28;20636;-70
2022/06/26 07:51:33;;;;;;;7.78;7.18;;;26.40;99.90;;;;;;5024738;28;20234;-70
2022/06/26 07:53:59;;;;;;;8.20;7.50;;;26.40;99.90;;;;;;5027217;28;20680;-70
2022/06/26 07:56:25;;;;;;;7.82;7.22;;;26.50;99.90;;;;;;5024883;28;20326;-70
2022/06/26 07:58:52;;;;;;;6.72;6.13;;;26.50;99.90;;;;;;5023939;28;20206;-70
2022/06/26 08:01:17;;;;;;;7.22;6.63;;;26.60;99.90;;;;;;5018077;28;20905;-70
2022/06/26 08:03:43;;;;;;;7.00;6.40;;;26.60;99.90;;;;;;5027218;28;20283;-70
2022/06/26 08:06:08;;;;;;;7.25;6.75;;;26.70;99.90;;;;;;5018547;28;20207;-70
2022/06/26 08:08:34;;;;;;;6.47;6.05;;;26.80;99.90;;;;;;5021560;28;20696;-70
2022/06/26 08:10:59;;;;;;;6.22;5.82;;;26.80;99.90;;;;;;5020415;28;20200;-70
2022/06/26 08:13:25;;;;;;;6.22;5.82;;;26.90;99.90;;;;;;5016270;28;20266;-70
2022/06/26 08:15:50;;;;;;;6.03;5.63;;;26.90;99.90;;;;;;5025763;28;20192;-70
2022/06/26 08:18:16;;;;;;;6.40;5.80;;;27.00;99.90;;;;;;5014922;28;20195;-70
2022/06/26 08:20:41;;;;;;;7.07;6.50;;;27.00;99.90;;;;;;5025152;28;20195;-66
2022/06/26 08:23:07;;;;;;;8.90;6.28;;;27.10;99.90;;;;;;5011250;28;20193;-70
2022/06/26 08:25:33;;;;;;;6.43;6.03;;;27.20;99.90;;;;;;5022219;28;20560;-70
2022/06/26 08:27:59;;;;;;;7.05;6.55;;;27.40;99.90;;;;;;5007984;28;20208;-70
2022/06/26 08:30:25;;;;;;;6.28;5.88;;;27.60;99.70;;;;;;5005926;28;20211;-71
2022/06/26 08:32:51;;;;;;;6.47;5.88;;;27.70;98.70;;;;;;5009549;28;20219;-70
2022/06/26 08:35:16;;;;;;;6.53;6.13;;;27.70;99.20;;;;;;5026434;28;20191;-70
2022/06/26 08:37:42;;;;;;;5.65;5.28;;;27.70;99.80;;;;;;5019191;28;20219;-69
2022/06/26 08:40:08;;;;;;;6.43;5.90;;;27.70;99.10;;;;;;5026724;28;20199;-70
2022/06/26 08:42:39;;;;;;;6.15;5.65;;;27.80;99.40;;;;;;5008644;28;20200;-70
2022/06/26 08:45:05;;;;;;;6.13;5.57;;;27.80;98.80;;;;;;5026626;28;20219;-70
2022/06/26 08:47:39;;;;;;;6.57;6.00;;;28.00;98.50;;;;;;5015084;28;20215;-70
2022/06/26 08:50:06;;;;;;;5.35;5.05;;;28.10;98.60;;;;;;5013465;28;20489;-70
2022/06/26 08:52:32;;;;;;;5.68;5.20;;;28.30;97.70;;;;;;5012681;28;20192;-71
2022/06/26 08:54:58;;;;;;;6.03;5.63;;;28.30;97.30;;;;;;5026247;28;20247;-70
2022/06/26 08:57:24;;;;;;;5.82;5.43;;;28.40;97.10;;;;;;5024671;28;20227;-71
2022/06/26 08:59:49;;;;;;;6.53;6.00;;;28.50;96.50;;;;;;5025962;28;20196;-70
2022/06/26 09:02:15;;;;;;;5.60;5.30;;;28.60;96.60;;;;;;5013329;28;20234;-70
2022/06/26 09:04:40;;;;;;;5.07;4.68;;;28.70;96.10;;;;;;5026477;28;20184;-71
2022/06/26 09:07:07;;;;;;;5.28;4.88;;;29.00;95.00;;;;;;5015049;28;20215;-70
2022/06/26 09:09:36;;;;;;;6.03;5.53;;;29.10;95.10;;;;;;5016244;28;20930;-70
2022/06/26 09:12:02;;;;;;;6.20;5.25;;;29.20;94.40;;;;;;5012254;28;20197;-72
2022/06/26 09:14:30;;;;;;;5.75;5.35;;;29.30;94.40;;;;;;5025658;28;20203;-70
2022/06/26 09:16:57;;;;;;;6.65;6.15;;;29.30;94.10;;;;;;5021055;28;20272;-69
2022/06/26 09:19:26;;;;;;;6.10;5.63;;;29.40;93.50;;;;;;5025681;28;20321;-71
2022/06/26 09:22:12;;;;;;;6.63;5.93;;;29.30;92.70;;;;;;5013451;28;20203;-71
2022/06/26 09:24:40;;;;;;;6.07;5.68;;;29.30;93.60;;;;;;4990264;28;20239;-69
2022/06/26 09:27:10;;;;;;;5.60;5.20;;;29.40;92.90;;;;;;5011581;28;20208;-70
2022/06/26 09:29:35;;;;;;;6.90;6.30;;;29.50;92.90;;;;;;5024203;28;20654;-71
2022/06/26 09:32:13;;;;;;;6.78;6.18;;;29.70;92.10;;;;;;5023447;28;20215;-69
2022/06/26 09:34:46;;;;;;;6.82;6.25;;;29.80;91.80;;;;;;5014894;28;20286;-69
2022/06/26 09:37:11;;;;;;;6.32;5.90;;;29.90;92.30;;;;;;4997701;28;20196;-70
2022/06/26 09:39:37;;;;;;;7.35;6.65;;;29.90;92.40;;;;;;5023294;28;20526;-68
2022/06/26 09:42:16;;;;;;;5.82;5.50;;;30.00;92.20;;;;;;5011717;28;20230;-69
2022/06/26 09:44:50;;;;;;;6.95;6.05;;;30.10;91.70;;;;;;5016681;28;20196;-69
2022/06/26 09:47:35;;;;;;;5.90;5.50;;;30.30;91.10;;;;;;5013296;28;20227;-69
2022/06/26 09:50:02;;;;;;;7.38;6.88;;;30.10;90.60;;;;;;5004326;28;20227;-69
2022/06/26 09:52:31;;;;;;;6.82;6.40;;;30.00;90.80;;;;;;5010677;28;20286;-70
2022/06/26 09:54:58;;;;;;;7.97;7.40;;;29.90;90.30;;;;;;5024435;28;20550;-69
2022/06/26 09:57:26;;;;;;;7.35;6.85;;;29.90;90.90;;;;;;5010046;28;20585;-69
2022/06/26 09:59:52;;;;;;;6.35;5.95;;;29.90;90.50;;;;;;5024544;28;20206;-69
2022/06/26 10:07:51;;;;;;;6.45;6.05;;;29.80;91.00;;;;;;5008120;28;20900;-72
2022/06/26 10:10:20;;;;;;;6.32;5.88;;;29.80;90.50;;;;;;5024906;28;20195;-71
2022/06/26 10:12:49;;;;;;;7.03;6.30;;;29.80;90.60;;;;;;5016490;28;20618;-71
2022/06/26 10:15:18;;;;;;;8.07;7.38;;;29.90;91.00;;;;;;5024862;28;20195;-71
2022/06/26 10:18:07;;;;;;;7.20;6.70;;;30.00;90.70;;;;;;5010154;28;20204;-70
2022/06/26 10:20:34;;;;;;;8.13;7.53;;;30.10;90.50;;;;;;5005534;28;20226;-69
2022/06/26 10:22:59;;;;;;;6.60;6.20;;;30.10;90.10;;;;;;5004673;28;20283;-70
2022/06/26 10:25:29;;;;;;;7.53;6.85;;;30.10;89.40;;;;;;5007693;28;20287;-75
2022/06/26 10:27:56;;;;;;;7.15;6.60;;;30.00;90.30;;;;;;5005651;28;20216;-76
2022/06/26 10:30:24;;;;;;;7.20;6.70;;;30.10;89.60;;;;;;5024894;28;20200;-74
2022/06/26 10:33:10;;;;;;;8.07;7.47;;;30.00;90.10;;;;;;5007112;28;20247;-73
2022/06/26 10:35:37;;;;;;;7.43;6.72;;;30.00;90.20;;;;;;5006237;28;20251;-74
2022/06/26 10:38:18;;;;;;;7.32;6.82;;;30.00;90.50;;;;;;5017899;28;20298;-70
2022/06/26 10:43:52;;;;;;;7.28;6.78;;;30.10;90.10;;;;;;5005182;28;20199;-73
2022/06/26 10:46:20;;;;;;;6.15;5.75;;;30.30;90.20;;;;;;5000604;28;20211;-72
2022/06/26 10:48:52;;;;;;;8.35;7.65;;;30.50;89.40;;;;;;5005675;28;20591;-72
2022/06/26 10:51:29;;;;;;;6.35;5.95;;;30.70;88.30;;;;;;5004770;28;20200;-71
2022/06/26 10:53:54;;;;;;;8.60;6.55;;;31.00;87.30;;;;;;5007546;28;20555;-71
2022/06/26 10:56:21;;;;;;;5.78;5.38;;;31.10;87.00;;;;;;5007780;28;20239;-70
2022/06/26 10:58:48;;;;;;;6.07;5.55;;;31.30;86.00;;;;;;5004798;28;20208;-69
2022/06/26 11:01:15;;;;;;;5.55;5.15;;;31.40;85.10;;;;;;5022404;28;20816;-69
2022/06/26 11:03:42;;;;;;;7.55;6.03;;;31.60;83.90;;;;;;5007361;28;20191;-71
2022/06/26 11:06:12;;;;;;;5.68;5.20;;;31.80;85.80;;;;;;5018515;28;20609;-72
2022/06/26 11:08:49;;;;;;;5.13;4.82;;;32.00;78.70;;;;;;5027457;28;20673;-75
2022/06/26 11:11:22;;;;;;;5.68;5.25;;;32.10;81.00;;;;;;5026684;28;20195;-74
2022/06/26 11:13:56;;;;;;;7.93;7.28;;;32.20;79.70;;;;;;5016286;28;20234;-75
2022/06/26 11:16:42;;;;;;;5.63;5.20;;;32.40;79.50;;;;;;5007514;28;20204;-74
2022/06/26 11:19:26;;;;;;;6.20;5.80;;;32.40;78.20;;;;;;5019006;28;20586;-69
2022/06/26 11:22:08;;;;;;;8.75;7.95;;;32.20;77.50;;;;;;5011386;28;20204;-74
2022/06/26 11:24:35;;;;;;;5.90;5.40;;;32.40;78.60;;;;;;5026862;28;20257;-75
2022/06/26 11:27:00;;;;;;;5.20;4.88;;;32.60;76.20;;;;;;5025793;28;20197;-75
2022/06/26 11:29:27;;;;;;;5.53;5.13;;;32.90;76.20;;;;;;5011523;28;20196;-74
2022/06/26 11:31:53;;;;;;;5.63;5.13;;;33.60;75.30;;;;;;5008586;28;20505;-74
2022/06/26 11:34:20;;;;;;;5.65;5.18;;;34.30;72.10;;;;;;5012115;28;20490;-74
2022/06/26 11:36:53;;;;;;;5.25;4.85;;;35.00;70.80;;;;;;5016032;28;20211;-78
2022/06/26 11:39:19;;;;;;;5.82;5.43;;;35.80;68.70;;;;;;5009132;28;20610;-74
2022/06/26 11:41:46;;;;;;;5.90;5.50;;;36.50;64.90;;;;;;5016472;28;20199;-76
2022/06/26 11:44:12;;;;;;;4.45;4.22;;;37.10;61.80;;;;;;5010974;28;20172;-76
2022/06/26 11:46:37;;;;;;;4.90;4.65;;;37.50;58.90;;;;;;5012029;28;20642;-73
2022/06/26 11:49:03;;;;;;;4.70;4.40;;;37.90;59.50;;;;;;5008970;28;20219;-75
2022/06/26 11:51:31;;;;;;;4.88;4.43;;;38.70;57.90;;;;;;5015075;28;20208;-76
2022/06/26 11:53:57;;;;;;;5.72;5.22;;;38.90;53.20;;;;;;5023838;28;20192;-75
2022/06/26 11:56:26;;;;;;;4.50;4.30;;;39.00;52.90;;;;;;5007131;28;20228;-77
2022/06/26 11:58:54;;;;;;;4.03;3.83;;;39.00;50.00;;;;;;5009029;28;20192;-78
2022/06/26 12:01:21;;;;;;;4.75;4.35;;;38.90;49.10;;;;;;5023927;28;20688;-76
2022/06/26 12:03:46;;;;;;;4.53;4.25;;;38.90;50.80;;;;;;5019340;28;20191;-78
2022/06/26 12:06:12;;;;;;;5.00;4.72;;;38.90;49.10;;;;;;5027199;28;20846;-79
2022/06/26 12:08:38;;;;;;;4.50;4.30;;;39.00;49.50;;;;;;5016191;28;20214;-83
2022/06/26 12:11:03;;;;;;;4.40;4.10;;;38.80;49.30;;;;;;5029182;28;20654;-76
2022/06/26 12:13:32;;;;;;;4.95;4.65;;;38.60;49.80;;;;;;5015269;28;20200;-76
2022/06/26 12:16:03;;;;;;;5.05;4.75;;;38.60;48.60;;;;;;5027085;28;20184;-78
2022/06/26 12:18:28;;;;;;;4.28;4.07;;;38.40;50.20;;;;;;5014642;28;20323;-77
2022/06/26 12:20:54;;;;;;;4.38;4.18;;;38.50;49.10;;;;;;5020067;28;20200;-76
2022/06/26 12:23:31;;;;;;;4.68;4.38;;;38.90;48.30;;;;;;5009507;28;20234;-78
2022/06/26 12:26:05;;;;;;;4.00;3.80;;;39.40;47.00;;;;;;5012968;28;20223;-77
2022/06/26 12:28:31;;;;;;;5.03;4.72;;;39.60;46.80;;;;;;5014424;28;20242;-79
2022/06/26 12:30:56;;;;;;;4.95;4.55;;;39.80;47.20;;;;;;5026199;28;20536;-77
2022/06/26 12:33:22;;;;;;;5.47;5.03;;;39.70;47.60;;;;;;5011118;28;20223;-77
2022/06/26 12:35:47;;;;;;;5.50;5.20;;;40.00;47.30;;;;;;5026665;28;20274;-77
2022/06/26 12:38:13;;;;;;;4.88;4.57;;;40.20;46.50;;;;;;5011364;28;20227;-77
2022/06/26 12:40:38;;;;;;;5.18;4.88;;;39.70;45.10;;;;;;5027099;28;20743;-77
2022/06/26 12:43:04;;;;;;;5.38;5.03;;;40.50;43.80;;;;;;5019628;28;20200;-77
2022/06/26 12:45:30;;;;;;;4.63;4.40;;;40.20;45.60;;;;;;5026108;28;20187;-78
2022/06/26 12:47:55;;;;;;;5.55;5.25;;;40.20;45.30;;;;;;5019049;28;20709;-79
2022/06/26 12:50:20;;;;;;;5.45;5.15;;;40.30;45.50;;;;;;5022963;28;20305;-78
2022/06/26 12:52:46;;;;;;;4.85;4.65;;;40.40;45.10;;;;;;5011890;28;20203;-78
2022/06/26 12:55:12;;;;;;;5.32;5.03;;;40.00;44.20;;;;;;5025509;28;20732;-78